This is the latest recevied weather packets stored in our database for station/object Ad4UU. If no packets are shown the sender has not sent any weather packets the latest 10 day(s).
| Time | Temp. | Humidity | Pressure | Rain* | Wind** | Luminosity | Snow |
|---|---|---|---|---|---|---|---|
| 1777823167 | 22.22° C | 65% | 1020.7 hPa | 0 mm | - | - | - |
| 1777821030 | 21.11° C | 71% | 1020.4 hPa | 0 mm | - | - | - |
| 1777820730 | 21.11° C | 71% | 1020.1 hPa | 0 mm | - | - | - |
| 1777819233 | 20.56° C | 75% | 1020.3 hPa | 0 mm | - | - | - |
| 1777818930 | 20° C | 74% | 1020.4 hPa | 0 mm | - | - | - |
| 1777818331 | 19.44° C | 74% | 1020.3 hPa | 0 mm | - | - | - |
| 1777818030 | 19.44° C | 74% | 1020.3 hPa | 0 mm | - | - | - |
| 1777816853 | 18.89° C | 77% | 1020.2 hPa | 0 mm | - | - | - |
| 1777815046 | 17.78° C | 82% | 1020.1 hPa | 0 mm | - | - | - |
| 1777813831 | 16.67° C | 89% | 1019.9 hPa | 0 mm | - | - | - |
| 1777813248 | 16.11° C | 91% | 1019.6 hPa | 0 mm | - | - | - |
| 1777812030 | 15.56° C | 95% | 1019.6 hPa | 0 mm | - | - | - |
| 1777811730 | 15° C | 96% | 1019.6 hPa | 0 mm | - | - | - |
| 1777811130 | 15° C | 97% | 1019.6 hPa | 0 mm | - | - | - |
| 1777810232 | 14.44° C | 97% | 1019.4 hPa | 0 mm | - | - | - |
| 1777808746 | 13.89° C | 97% | 1019.1 hPa | 0 mm | - | - | - |
| 1777808430 | 13.89° C | 97% | 1019 hPa | 0 mm | - | - | - |
| 1777806049 | 13.33° C | 97% | 1018.7 hPa | 0 mm | - | - | - |
| 1777805431 | 13.33° C | 97% | 1018.5 hPa | 0 mm | - | - | - |
| 1777803631 | 13.33° C | 97% | 1017.9 hPa | 0 mm | - | - | - |
| 1777803342 | 13.89° C | 97% | 1017.9 hPa | 0 mm | - | - | - |
| 1777798849 | 13.33° C | 96% | 1017.5 hPa | 0 mm | - | - | - |
| 1777797945 | 13.33° C | 96% | 1017.3 hPa | 0 mm | - | - | - |
| 1777797629 | 13.33° C | 96% | 1017.4 hPa | 0 mm | - | - | - |
| 1777796729 | 13.89° C | 96% | 1017.3 hPa | 0 mm | - | - | - |
* Rain latest hour (hover to see other rain measurements)
** Current wind speed in m/s (hover to see current wind gust speed)